Time;durP1;ratioP1;P1;durP2;ratioP2;P2;SDS_P1;SDS_P2;PMS_P1;PMS_P2;Temp;Humidity;BMP_temperature;BMP_pressure;BME280_temperature;BME280_humidity;BME280_pressure;Samples;Min_cycle;Max_cycle;Signal;HPM_P1;HPM_P2
2021/04/13 00:01:12;;;;;;;7.28;2.20;;;5.90;99.90;;;;;;2086246;28;20112;-68
2021/04/13 00:02:17;;;;;;;7.18;1.75;;;5.90;99.90;;;;;;2086182;28;20593;-68
2021/04/13 00:03:18;;;;;;;7.75;2.13;;;5.80;99.90;;;;;;2087101;28;20068;-68
2021/04/13 00:04:20;;;;;;;8.40;2.22;;;5.80;99.90;;;;;;2098020;28;20113;-68
2021/04/13 00:05:41;;;;;;;7.70;2.13;;;5.70;99.90;;;;;;2094065;28;20021;-68
2021/04/13 00:06:47;;;;;;;9.68;2.40;;;5.70;99.90;;;;;;2080862;28;20021;-69
2021/04/13 00:07:48;;;;;;;7.93;2.30;;;5.70;99.90;;;;;;2086380;28;20037;-69
2021/04/13 00:08:51;;;;;;;9.55;2.20;;;5.70;99.90;;;;;;2085418;28;20108;-68
2021/04/13 00:09:53;;;;;;;7.65;2.60;;;5.70;99.90;;;;;;2086311;28;20036;-68
2021/04/13 00:10:57;;;;;;;;;;;5.60;99.90;;;;;;2094526;28;20102;-68
2021/04/13 00:12:06;;;;;;;9.57;2.20;;;5.60;99.90;;;;;;2090377;28;19909;-69
2021/04/13 00:13:08;;;;;;;8.60;2.30;;;5.60;99.90;;;;;;2080083;28;20030;-68
2021/04/13 00:14:19;;;;;;;5.65;1.85;;;5.60;99.90;;;;;;2080677;28;20036;-68
2021/04/13 00:15:31;;;;;;;6.72;2.28;;;5.50;99.90;;;;;;2079737;28;20172;-68
2021/04/13 00:16:34;;;;;;;9.57;2.25;;;5.50;99.90;;;;;;2074979;28;20029;-68
2021/04/13 00:17:35;;;;;;;5.80;2.00;;;5.50;99.90;;;;;;2076404;28;20022;-68
2021/04/13 00:18:40;;;;;;;5.57;1.70;;;5.50;99.90;;;;;;2081472;28;20028;-69
2021/04/13 00:19:55;;;;;;;8.38;2.45;;;5.50;99.90;;;;;;2080971;28;20025;-68
2021/04/13 00:21:03;;;;;;;6.88;2.30;;;5.50;99.90;;;;;;2092609;28;20049;-68
2021/04/13 00:22:03;;;;;;;7.50;2.30;;;5.50;99.90;;;;;;2091546;28;20032;-68
2021/04/13 00:23:05;;;;;;;6.70;3.35;;;5.40;99.90;;;;;;2084795;28;20057;-68
2021/04/13 00:24:11;;;;;;;7.03;2.45;;;5.40;99.90;;;;;;2085510;28;20487;-68
2021/04/13 00:25:25;;;;;;;8.55;2.25;;;5.30;99.90;;;;;;2081504;28;20049;-68
2021/04/13 00:26:29;;;;;;;9.13;2.40;;;5.20;99.90;;;;;;2081535;28;20024;-68
2021/04/13 00:27:31;;;;;;;6.57;2.25;;;5.10;99.90;;;;;;2080957;28;20017;-68
2021/04/13 00:28:40;;;;;;;;;;;5.10;99.90;;;;;;2077498;28;20057;-68
2021/04/13 00:29:42;;;;;;;5.63;2.65;;;5.10;99.90;;;;;;2080629;28;19999;-68
2021/04/13 00:30:50;;;;;;;11.30;2.20;;;5.10;99.90;;;;;;2081192;28;20649;-68
2021/04/13 00:31:59;;;;;;;9.85;2.40;;;5.10;99.90;;;;;;2080799;28;20029;-69
2021/04/13 00:33:03;;;;;;;5.13;2.40;;;5.00;99.90;;;;;;2080821;28;20428;-68
2021/04/13 00:34:17;;;;;;;5.55;2.45;;;5.00;99.90;;;;;;2081075;28;20022;-68
2021/04/13 00:35:29;;;;;;;5.68;2.63;;;4.90;99.90;;;;;;2080770;28;20103;-69
2021/04/13 00:36:30;;;;;;;6.35;2.70;;;4.80;99.90;;;;;;2080165;28;20144;-68
2021/04/13 00:37:32;;;;;;;7.97;2.75;;;4.80;99.90;;;;;;2076254;28;20269;-68
2021/04/13 00:38:35;;;;;;;8.40;2.35;;;4.80;99.90;;;;;;2078468;28;20043;-68
2021/04/13 00:39:36;;;;;;;11.57;2.67;;;4.80;99.90;;;;;;2080588;28;20456;-68
2021/04/13 00:40:38;;;;;;;8.63;2.47;;;4.80;99.90;;;;;;2080876;28;20017;-68
2021/04/13 00:41:43;;;;;;;14.43;4.00;;;4.90;99.90;;;;;;2081254;28;20095;-68
2021/04/13 00:42:44;;;;;;;11.00;2.80;;;5.00;99.90;;;;;;2076618;28;20366;-68
2021/04/13 00:44:07;;;;;;;6.28;2.83;;;5.00;99.90;;;;;;2078226;28;20025;-68
2021/04/13 00:45:24;;;;;;;7.88;2.65;;;4.90;99.90;;;;;;2081382;28;20112;-68
2021/04/13 00:46:31;;;;;;;8.07;3.22;;;4.90;99.90;;;;;;2080654;28;20067;-68
2021/04/13 00:47:35;;;;;;;6.15;3.10;;;4.80;99.90;;;;;;2079394;28;20568;-68
2021/04/13 00:48:40;;;;;;;10.40;3.55;;;4.70;99.90;;;;;;2072591;28;20096;-68
2021/04/13 00:49:47;;;;;;;7.50;3.55;;;4.50;99.90;;;;;;2077139;28;20035;-68
2021/04/13 00:50:51;;;;;;;8.05;3.88;;;4.50;99.90;;;;;;2079866;28;20065;-68
2021/04/13 00:51:55;;;;;;;7.78;2.80;;;4.40;99.90;;;;;;2079256;28;20076;-68
2021/04/13 00:53:00;;;;;;;6.07;2.92;;;4.30;99.90;;;;;;2079659;28;20022;-68
2021/04/13 00:54:08;;;;;;;9.65;3.65;;;4.20;99.90;;;;;;2073053;28;20018;-68
2021/04/13 00:55:12;;;;;;;8.52;3.35;;;4.20;99.90;;;;;;2079656;28;20021;-68
2021/04/13 00:56:16;;;;;;;7.93;3.22;;;4.10;99.90;;;;;;2086082;28;20059;-68
2021/04/13 00:57:22;;;;;;;6.28;3.33;;;4.10;99.90;;;;;;2080410;28;20072;-68
2021/04/13 00:58:37;;;;;;;9.45;3.78;;;4.00;99.90;;;;;;2080061;28;20021;-68
2021/04/13 00:59:38;;;;;;;11.25;3.33;;;4.00;99.90;;;;;;2073216;28;20030;-68
2021/04/13 01:00:46;;;;;;;6.35;3.28;;;3.90;99.90;;;;;;2081706;28;20033;-67
2021/04/13 01:01:57;;;;;;;7.32;2.58;;;3.90;99.90;;;;;;2080537;28;20030;-68
2021/04/13 01:08:19;;;;;;;8.32;3.22;;;4.10;99.90;;;;;;2076398;28;20603;-68
2021/04/13 01:09:21;;;;;;;7.05;2.78;;;4.20;99.90;;;;;;2072856;28;20022;-68
2021/04/13 01:10:34;;;;;;;10.18;3.05;;;4.20;99.90;;;;;;2089300;28;20017;-68
2021/04/13 01:11:42;;;;;;;11.07;3.08;;;4.30;99.90;;;;;;2080614;28;20029;-68
2021/04/13 01:12:51;;;;;;;6.65;2.80;;;4.20;99.90;;;;;;2079896;28;20047;-68
2021/04/13 01:13:59;;;;;;;6.60;3.05;;;4.10;99.90;;;;;;2081365;28;20037;-68
2021/04/13 01:15:01;;;;;;;10.68;3.17;;;4.10;99.90;;;;;;2083529;28;20047;-68
2021/04/13 01:16:02;;;;;;;9.25;2.60;;;4.00;99.90;;;;;;2087215;28;20538;-68
2021/04/13 01:17:07;;;;;;;7.30;2.97;;;3.90;99.90;;;;;;2081651;28;20029;-68
2021/04/13 01:18:13;;;;;;;8.43;2.95;;;3.80;99.90;;;;;;2081213;28;20041;-68
2021/04/13 01:19:27;;;;;;;6.72;3.17;;;3.80;99.90;;;;;;2080385;28;20018;-68
2021/04/13 01:20:54;;;;;;;6.03;2.63;;;3.80;99.90;;;;;;2073916;28;20100;-68
2021/04/13 01:22:12;;;;;;;12.55;3.20;;;3.90;99.90;;;;;;2081880;28;20141;-67
2021/04/13 01:23:38;;;;;;;6.80;2.92;;;3.90;99.90;;;;;;2089353;28;20151;-67
2021/04/13 01:24:37;;;;;;;8.32;3.03;;;3.90;99.90;;;;;;2079579;28;20046;-67
2021/04/13 01:25:44;;;;;;;14.80;3.58;;;4.00;99.90;;;;;;2078434;28;20057;-68
2021/04/13 01:26:48;;;;;;;10.05;3.08;;;4.00;99.90;;;;;;2080827;28;20543;-67
2021/04/13 01:27:58;;;;;;;6.68;3.22;;;4.00;99.90;;;;;;2079579;28;20025;-67
2021/04/13 01:29:00;;;;;;;9.15;3.20;;;4.00;99.90;;;;;;2079513;28;20033;-67
2021/04/13 01:30:08;;;;;;;8.40;3.03;;;4.10;99.90;;;;;;2078930;28;20029;-67
2021/04/13 01:31:16;;;;;;;8.07;3.65;;;4.10;99.90;;;;;;2080273;28;20076;-67
2021/04/13 01:32:18;;;;;;;8.25;3.10;;;4.00;99.90;;;;;;2080804;28;20052;-68
2021/04/13 01:33:22;;;;;;;9.13;3.80;;;4.10;99.90;;;;;;2072835;28;20106;-67
2021/04/13 01:34:33;;;;;;;7.50;3.03;;;4.10;99.90;;;;;;2072320;28;20024;-67
2021/04/13 01:35:33;;;;;;;6.60;3.45;;;4.10;99.90;;;;;;2072753;28;20105;-67
2021/04/13 01:36:37;;;;;;;5.05;3.08;;;4.20;99.90;;;;;;2075712;28;20064;-67
2021/04/13 01:38:17;;;;;;;8.10;3.80;;;4.20;99.90;;;;;;2082468;28;20594;-67
2021/04/13 01:39:24;;;;;;;4.97;2.95;;;4.30;99.90;;;;;;2072675;28;20034;-67
2021/04/13 01:40:32;;;;;;;;;;;4.30;99.90;;;;;;2081452;28;20021;-67
2021/04/13 01:41:58;;;;;;;6.53;3.10;;;4.30;99.90;;;;;;2073792;28;19930;-67
2021/04/13 01:42:59;;;;;;;11.35;3.50;;;4.40;99.90;;;;;;2076426;28;20029;-67
2021/04/13 01:44:00;;;;;;;8.65;3.53;;;4.40;99.90;;;;;;2089306;28;20027;-67
2021/04/13 01:45:11;;;;;;;15.05;4.47;;;4.40;99.90;;;;;;2081679;28;20677;-67
2021/04/13 01:46:12;;;;;;;8.45;3.13;;;4.30;99.90;;;;;;2079743;28;20096;-67
2021/04/13 01:47:16;;;;;;;7.70;3.25;;;4.30;99.90;;;;;;2080815;28;20112;-67
2021/04/13 01:48:18;;;;;;;9.50;3.50;;;4.20;99.90;;;;;;2079789;28;20025;-67
2021/04/13 01:49:19;;;;;;;13.18;3.55;;;4.20;99.90;;;;;;2080150;28;20596;-67
2021/04/13 01:50:22;;;;;;;11.13;4.20;;;4.20;99.90;;;;;;2076572;28;20026;-67
2021/04/13 01:51:22;;;;;;;11.68;3.08;;;4.10;99.90;;;;;;2079298;28;20029;-67
2021/04/13 01:52:44;;;;;;;7.70;3.33;;;4.00;99.90;;;;;;2085466;28;20033;-67
2021/04/13 01:53:48;;;;;;;5.00;3.13;;;3.90;99.90;;;;;;2074223;28;20076;-67
2021/04/13 01:54:49;;;;;;;6.15;2.97;;;3.80;99.90;;;;;;2080451;28;20099;-67
2021/04/13 01:55:59;;;;;;;7.05;3.25;;;3.70;99.90;;;;;;2082730;28;20023;-67
2021/04/13 01:57:18;;;;;;;8.07;3.38;;;3.70;99.90;;;;;;2080126;28;20720;-67
2021/04/13 01:58:27;;;;;;;6.88;2.97;;;3.60;99.90;;;;;;2080054;28;20501;-67
2021/04/13 01:59:38;;;;;;;6.93;3.20;;;3.50;99.90;;;;;;2080514;28;20033;-67
2021/04/13 02:00:47;;;;;;;8.93;3.42;;;3.40;99.90;;;;;;2073695;28;20017;-66
2021/04/13 02:01:58;;;;;;;8.43;3.80;;;3.40;99.90;;;;;;2078974;28;20385;-68
2021/04/13 02:03:21;;;;;;;11.13;3.85;;;3.50;99.90;;;;;;2074370;28;20030;-67
2021/04/13 02:04:46;;;;;;;8.48;3.60;;;3.50;99.90;;;;;;2080321;28;20021;-67
2021/04/13 02:05:53;;;;;;;6.53;3.45;;;3.50;99.90;;;;;;2078484;28;20022;-67
2021/04/13 02:07:41;;;;;;;8.32;3.67;;;3.50;99.90;;;;;;2072582;28;20593;-67
2021/04/13 02:08:51;;;;;;;7.00;3.38;;;3.50;99.90;;;;;;2079522;28;20484;-67
2021/04/13 02:09:58;;;;;;;13.95;4.00;;;3.50;99.90;;;;;;2082774;28;20033;-67
2021/04/13 02:11:37;;;;;;;10.15;4.25;;;3.50;99.90;;;;;;2078361;28;20071;-66
2021/04/13 02:12:40;;;;;;;11.25;3.95;;;3.60;99.90;;;;;;2082892;28;20036;-66
2021/04/13 02:13:51;;;;;;;13.70;4.30;;;3.60;99.90;;;;;;2072545;28;20484;-67
2021/04/13 02:15:21;;;;;;;12.13;4.15;;;3.70;99.90;;;;;;2078946;28;20018;-67
2021/04/13 02:16:29;;;;;;;10.48;4.22;;;3.80;99.90;;;;;;2077358;28;20041;-67
2021/04/13 02:17:41;;;;;;;11.15;4.13;;;3.80;99.90;;;;;;2087620;28;20013;-67
2021/04/13 02:18:45;;;;;;;8.20;4.22;;;3.80;99.90;;;;;;2072667;28;20502;-67
2021/04/13 02:19:51;;;;;;;8.82;4.20;;;3.80;99.90;;;;;;2076821;28;20021;-67
2021/04/13 02:20:52;;;;;;;7.82;4.40;;;3.90;99.90;;;;;;2077361;28;20523;-67
2021/04/13 02:22:02;;;;;;;8.60;4.07;;;4.00;99.90;;;;;;2074547;28;20042;-67
2021/04/13 02:23:05;;;;;;;7.38;3.95;;;4.00;99.90;;;;;;2080304;28;20033;-66
2021/04/13 02:24:19;;;;;;;10.52;4.28;;;4.00;99.90;;;;;;2080385;28;20071;-66
2021/04/13 02:25:29;;;;;;;13.15;4.97;;;4.10;99.90;;;;;;2080588;28;20028;-67
2021/04/13 02:26:31;;;;;;;10.70;4.32;;;4.10;99.90;;;;;;2080718;28;20079;-66
2021/04/13 02:27:39;;;;;;;13.52;4.60;;;4.10;99.90;;;;;;2075842;28;20026;-66
2021/04/13 02:28:42;;;;;;;9.30;4.22;;;4.20;99.90;;;;;;2073301;28;20425;-67
2021/04/13 02:29:52;;;;;;;18.33;4.70;;;4.20;99.90;;;;;;2077656;28;20018;-66
2021/04/13 02:30:55;;;;;;;11.30;3.83;;;4.20;99.90;;;;;;2088315;28;20757;-67
2021/04/13 02:31:59;;;;;;;15.02;4.82;;;4.20;99.90;;;;;;2089073;28;20024;-69
2021/04/13 02:33:08;;;;;;;11.27;4.68;;;4.30;99.90;;;;;;2073052;28;20057;-66
2021/04/13 02:34:21;;;;;;;8.27;3.90;;;4.30;99.90;;;;;;2079996;28;20057;-66
2021/04/13 02:35:26;;;;;;;11.15;4.57;;;4.30;99.90;;;;;;2084416;28;20028;-66
2021/04/13 02:36:30;;;;;;;10.35;4.18;;;4.30;99.90;;;;;;2080631;28;20072;-66
2021/04/13 02:37:38;;;;;;;8.73;3.85;;;4.30;99.90;;;;;;2079274;28;20083;-66
2021/04/13 02:38:42;;;;;;;11.90;5.05;;;4.30;99.90;;;;;;2072436;28;20021;-66
2021/04/13 02:39:43;;;;;;;15.13;4.40;;;4.30;99.90;;;;;;2079823;28;20025;-66
2021/04/13 02:41:14;;;;;;;12.30;4.43;;;4.30;99.90;;;;;;2080111;28;20014;-66
2021/04/13 02:42:20;;;;;;;11.27;4.07;;;4.30;99.90;;;;;;2079135;28;20025;-66
2021/04/13 02:43:39;;;;;;;15.15;4.90;;;4.30;99.90;;;;;;2079785;28;20731;-66
2021/04/13 02:44:40;;;;;;;9.50;4.28;;;4.30;99.90;;;;;;2082951;28;20024;-66
2021/04/13 02:45:44;;;;;;;11.48;4.72;;;4.40;99.90;;;;;;2088851;28;20485;-66
2021/04/13 02:46:46;;;;;;;14.98;4.50;;;4.30;99.90;;;;;;2080574;28;20044;-66
2021/04/13 02:47:51;;;;;;;15.18;4.85;;;4.30;99.90;;;;;;2077191;28;20025;-66
2021/04/13 02:49:11;;;;;;;12.95;3.90;;;4.30;99.90;;;;;;2071874;28;20022;-67
2021/04/13 02:50:16;;;;;;;10.25;4.18;;;4.20;99.90;;;;;;2070923;28;20022;-66
2021/04/13 02:51:18;;;;;;;8.93;4.28;;;4.30;99.90;;;;;;2071282;28;20030;-66
2021/04/13 02:52:31;;;;;;;9.43;4.05;;;4.20;99.90;;;;;;2088898;28;20499;-66
2021/04/13 02:53:36;;;;;;;;;;;4.20;99.90;;;;;;2088437;28;20025;-66
2021/04/13 02:54:58;;;;;;;8.18;3.72;;;4.20;99.90;;;;;;2084436;28;19905;-66
2021/04/13 02:56:00;;;;;;;9.38;4.03;;;4.10;99.90;;;;;;2085854;28;20049;-66
2021/04/13 02:57:10;;;;;;;10.63;3.97;;;4.10;99.90;;;;;;2072430;28;20574;-66
2021/04/13 02:58:12;;;;;;;7.60;3.75;;;4.10;99.90;;;;;;2071743;28;20025;-66
2021/04/13 02:59:12;;;;;;;11.15;4.25;;;4.10;99.90;;;;;;2076548;28;20029;-66
2021/04/13 03:00:38;;;;;;;12.20;4.10;;;4.00;99.90;;;;;;2075848;28;20030;-66
2021/04/13 03:01:47;;;;;;;13.38;4.70;;;4.00;99.90;;;;;;2071995;28;20088;-67
2021/04/13 03:02:54;;;;;;;8.95;4.22;;;4.00;99.90;;;;;;2077232;28;20028;-66
2021/04/13 03:04:03;;;;;;;9.10;4.25;;;3.90;99.90;;;;;;2080282;28;20108;-66
2021/04/13 03:05:07;;;;;;;10.18;4.10;;;3.80;99.90;;;;;;2080488;28;20053;-66
2021/04/13 03:06:08;;;;;;;8.25;4.47;;;3.70;99.90;;;;;;2079838;28;20019;-66
2021/04/13 03:07:17;;;;;;;8.52;3.47;;;3.60;99.90;;;;;;2076680;28;20049;-66
2021/04/13 03:08:19;;;;;;;7.50;3.50;;;3.50;99.90;;;;;;2086251;28;20120;-66
2021/04/13 03:09:26;;;;;;;10.98;3.42;;;3.30;99.90;;;;;;2077239;28;20014;-66
2021/04/13 03:10:31;;;;;;;6.15;3.97;;;3.20;99.90;;;;;;2072407;28;20096;-66
2021/04/13 03:11:35;;;;;;;10.73;3.75;;;3.10;99.90;;;;;;2084627;28;20013;-68
2021/04/13 03:12:45;;;;;;;7.82;3.45;;;3.10;99.90;;;;;;2074057;28;20060;-66
2021/04/13 03:13:48;;;;;;;12.68;3.83;;;3.00;99.90;;;;;;2080681;28;20024;-66
2021/04/13 03:14:52;;;;;;;8.75;3.20;;;3.00;99.90;;;;;;2073943;28;20032;-66
2021/04/13 03:15:59;;;;;;;7.50;3.80;;;2.90;99.90;;;;;;2071247;28;20026;-67
2021/04/13 03:17:00;;;;;;;13.25;3.97;;;2.90;99.90;;;;;;2076867;28;20120;-65
2021/04/13 03:18:42;;;;;;;10.45;4.53;;;2.90;99.90;;;;;;2079135;28;20097;-66
2021/04/13 03:19:45;;;;;;;8.73;4.10;;;3.00;99.90;;;;;;2079442;28;20087;-66
2021/04/13 03:20:53;;;;;;;7.22;3.72;;;3.00;99.90;;;;;;2080465;28;20516;-66
2021/04/13 03:22:00;;;;;;;13.52;4.78;;;2.90;99.90;;;;;;2071811;28;20026;-67
2021/04/13 03:23:04;;;;;;;8.85;5.25;;;2.90;99.90;;;;;;2074151;28;20021;-66
2021/04/13 03:24:09;;;;;;;11.98;4.45;;;3.00;99.90;;;;;;2079658;28;20024;-66
2021/04/13 03:25:12;;;;;;;13.23;4.60;;;2.90;99.90;;;;;;2080227;28;20056;-66
2021/04/13 03:26:18;;;;;;;7.22;3.67;;;2.90;99.90;;;;;;2080061;28;20021;-66
2021/04/13 03:27:23;;;;;;;8.85;3.85;;;2.90;99.90;;;;;;2077492;28;20024;-66
2021/04/13 03:28:38;;;;;;;8.20;3.88;;;2.80;99.90;;;;;;2072272;28;20446;-66
2021/04/13 03:29:51;;;;;;;8.07;4.20;;;2.80;99.90;;;;;;2079311;28;20018;-66
2021/04/13 03:30:53;;;;;;;8.02;4.53;;;2.80;99.90;;;;;;2074753;28;20018;-66
2021/04/13 03:31:56;;;;;;;10.65;4.07;;;2.80;99.90;;;;;;2074536;28;20404;-66
2021/04/13 03:33:20;;;;;;;10.25;4.28;;;2.70;99.90;;;;;;2081145;28;20108;-66
2021/04/13 03:34:22;;;;;;;9.43;4.90;;;2.70;99.90;;;;;;2084094;28;20063;-66
2021/04/13 03:35:26;;;;;;;6.22;4.10;;;2.70;99.90;;;;;;2080335;28;20022;-66
2021/04/13 03:36:27;;;;;;;9.35;4.50;;;2.80;99.90;;;;;;2071552;28;20107;-66
2021/04/13 03:37:28;;;;;;;11.05;5.18;;;2.90;99.90;;;;;;2073682;28;20033;-66
2021/04/13 03:38:30;;;;;;;9.68;5.60;;;3.00;99.90;;;;;;2080301;28;20025;-66
2021/04/13 03:39:37;;;;;;;7.93;4.78;;;3.10;99.90;;;;;;2075291;28;20068;-66
2021/04/13 03:40:43;;;;;;;10.60;5.30;;;3.20;99.90;;;;;;2071105;28;20034;-66
2021/04/13 03:41:47;;;;;;;8.95;4.80;;;3.30;99.90;;;;;;2076231;28;20042;-66
2021/04/13 03:42:57;;;;;;;10.60;4.88;;;3.40;99.90;;;;;;2081523;28;20025;-66
2021/04/13 03:44:01;;;;;;;8.35;4.63;;;3.40;99.90;;;;;;2081625;28;20743;-66
2021/04/13 03:45:06;;;;;;;8.23;4.20;;;3.40;99.90;;;;;;2080120;28;20022;-66
2021/04/13 03:46:10;;;;;;;10.35;4.50;;;3.40;99.90;;;;;;2073035;28;20022;-66
2021/04/13 03:47:15;;;;;;;12.93;4.97;;;3.40;99.90;;;;;;2078341;28;20475;-66
2021/04/13 03:48:20;;;;;;;8.93;4.70;;;3.30;99.90;;;;;;2079927;28;20428;-66
2021/04/13 03:49:34;;;;;;;9.45;4.47;;;3.20;99.90;;;;;;2081299;28;20021;-66
2021/04/13 03:50:39;;;;;;;9.98;4.55;;;3.10;99.90;;;;;;2081931;28;20539;-66
2021/04/13 03:51:47;;;;;;;10.38;5.20;;;2.90;99.90;;;;;;2081421;28;20112;-66
2021/04/13 03:53:04;;;;;;;11.25;4.88;;;2.80;99.90;;;;;;2081201;28;20489;-66
2021/04/13 03:54:29;;;;;;;10.10;4.47;;;2.70;99.90;;;;;;2081729;28;20508;-66
2021/04/13 03:55:30;;;;;;;7.65;4.78;;;2.60;99.90;;;;;;2077489;28;20069;-66
2021/04/13 03:56:39;;;;;;;8.02;4.72;;;2.50;99.90;;;;;;2078416;28;20672;-66
2021/04/13 03:57:40;;;;;;;9.75;4.93;;;2.40;99.90;;;;;;2073319;28;20032;-66
2021/04/13 03:58:54;;;;;;;8.95;4.80;;;2.30;99.90;;;;;;2072911;28;20705;-66
2021/04/13 03:59:57;;;;;;;8.23;4.78;;;2.30;99.90;;;;;;2077723;28;20504;-66
2021/04/13 04:00:58;;;;;;;12.52;4.70;;;2.20;99.90;;;;;;2077655;28;20856;-66
2021/04/13 04:01:59;;;;;;;11.75;5.30;;;2.20;99.90;;;;;;2073557;28;20029;-66
2021/04/13 04:03:02;;;;;;;10.65;5.20;;;2.20;99.90;;;;;;2086652;28;20032;-66
2021/04/13 04:04:05;;;;;;;11.65;5.65;;;2.30;99.90;;;;;;2086272;28;20025;-67
2021/04/13 04:05:16;;;;;;;10.90;6.10;;;2.30;99.90;;;;;;2072987;28;20028;-66
2021/04/13 04:06:39;;;;;;;9.25;5.57;;;2.50;99.90;;;;;;2078777;28;20493;-65
2021/04/13 04:09:09;;;;;;;;;;;2.80;99.90;;;;;;2082070;28;20035;-66
2021/04/13 04:10:50;;;;;;;8.98;5.45;;;2.90;99.90;;;;;;2072840;28;19913;-66
2021/04/13 04:11:51;;;;;;;15.60;5.70;;;3.00;99.90;;;;;;2077427;28;20457;-67
2021/04/13 04:13:28;;;;;;;12.90;6.43;;;3.00;99.90;;;;;;2085053;28;20022;-67
2021/04/13 04:14:31;;;;;;;13.23;6.15;;;3.00;99.90;;;;;;2081932;28;20022;-66
2021/04/13 04:15:45;;;;;;;10.13;5.97;;;3.00;99.90;;;;;;2081630;28;20025;-67
2021/04/13 04:16:46;;;;;;;12.15;5.70;;;3.10;99.90;;;;;;2081111;28;20025;-67
2021/04/13 04:17:48;;;;;;;14.15;6.43;;;3.10;99.90;;;;;;2081189;28;20021;-66
2021/04/13 04:18:50;;;;;;;13.60;6.35;;;3.20;99.90;;;;;;2078128;28;20124;-66
2021/04/13 04:20:09;;;;;;;13.52;6.95;;;3.30;99.90;;;;;;2078742;28;20105;-67
2021/04/13 04:21:33;;;;;;;14.38;6.93;;;3.30;99.90;;;;;;2078665;28;20028;-66
2021/04/13 04:22:47;;;;;;;14.45;7.05;;;3.30;99.90;;;;;;2073624;28;20026;-67
2021/04/13 04:23:55;;;;;;;12.40;6.20;;;3.40;99.90;;;;;;2072786;28;20028;-66
2021/04/13 04:25:13;;;;;;;9.60;6.07;;;3.40;99.90;;;;;;2075916;28;20075;-66
2021/04/13 04:26:22;;;;;;;12.75;6.75;;;3.40;99.90;;;;;;2081287;28;20053;-66
2021/04/13 04:27:36;;;;;;;10.35;6.22;;;3.50;99.90;;;;;;2078847;28;20018;-66
2021/04/13 04:28:42;;;;;;;12.48;6.63;;;3.60;99.90;;;;;;2081082;28;20526;-66
2021/04/13 04:29:49;;;;;;;13.13;7.43;;;3.60;99.90;;;;;;2081053;28;20500;-66
2021/04/13 04:30:49;;;;;;;17.38;7.35;;;3.60;99.90;;;;;;2081630;28;20028;-65
2021/04/13 04:31:50;;;;;;;12.30;7.45;;;3.70;99.90;;;;;;2072841;28;20025;-65
2021/04/13 04:32:53;;;;;;;14.65;7.85;;;3.70;99.90;;;;;;2073026;28;20018;-65
2021/04/13 04:33:53;;;;;;;14.95;7.13;;;3.70;99.90;;;;;;2072989;28;20634;-65
2021/04/13 04:34:56;;;;;;;14.18;7.38;;;3.80;99.90;;;;;;2073379;28;20037;-66
2021/04/13 04:35:57;;;;;;;11.40;7.50;;;3.80;99.90;;;;;;2072128;28;20540;-66
2021/04/13 04:36:58;;;;;;;14.15;7.10;;;3.80;99.90;;;;;;2075124;28;20036;-65
2021/04/13 04:38:04;;;;;;;12.07;6.90;;;3.80;99.90;;;;;;2077945;28;20029;-65
2021/04/13 04:39:36;;;;;;;11.73;7.07;;;3.90;99.90;;;;;;2086710;28;20018;-67
2021/04/13 04:40:50;;;;;;;15.05;7.97;;;3.90;99.90;;;;;;2072549;28;20061;-66
2021/04/13 04:41:52;;;;;;;12.95;7.25;;;3.90;99.90;;;;;;2072509;28;20469;-66
2021/04/13 04:43:00;;;;;;;12.30;8.13;;;3.90;99.90;;;;;;2075976;28;20021;-66
2021/04/13 04:44:02;;;;;;;11.20;7.22;;;3.90;99.90;;;;;;2080099;28;20024;-66
2021/04/13 04:45:34;;;;;;;14.18;7.93;;;3.90;99.90;;;;;;2075263;28;20026;-66
2021/04/13 04:46:41;;;;;;;12.43;7.38;;;3.90;99.90;;;;;;2072933;28;20084;-66
2021/04/13 04:47:44;;;;;;;12.02;7.88;;;3.90;99.90;;;;;;2074354;28;20026;-66
2021/04/13 04:49:06;;;;;;;12.13;8.02;;;3.90;99.90;;;;;;2081637;28;20014;-66
2021/04/13 04:50:09;;;;;;;15.15;8.25;;;3.90;99.90;;;;;;2073131;28;20022;-66
2021/04/13 04:51:13;;;;;;;16.33;9.30;;;3.90;99.90;;;;;;2075433;28;20026;-66
2021/04/13 04:52:14;;;;;;;15.27;8.20;;;3.90;99.90;;;;;;2078549;28;20029;-67
2021/04/13 04:53:16;;;;;;;15.48;8.43;;;3.90;99.90;;;;;;2076084;28;20018;-66
2021/04/13 04:54:16;;;;;;;15.63;7.93;;;3.80;99.90;;;;;;2087704;28;20036;-66
2021/04/13 04:55:17;;;;;;;12.95;8.50;;;3.80;99.90;;;;;;2072919;28;20049;-66
2021/04/13 04:56:18;;;;;;;16.45;8.73;;;3.80;99.90;;;;;;2072745;28;20025;-66
2021/04/13 04:57:19;;;;;;;13.18;7.78;;;3.80;99.90;;;;;;2088952;28;20021;-66
2021/04/13 04:58:21;;;;;;;15.27;8.32;;;3.80;99.90;;;;;;2083707;28;20018;-66
2021/04/13 04:59:21;;;;;;;14.32;8.48;;;3.80;99.90;;;;;;2079838;28;20115;-66
2021/04/13 05:00:22;;;;;;;11.93;8.52;;;3.80;99.90;;;;;;2080671;28;20673;-66
2021/04/13 05:01:23;;;;;;;15.48;8.43;;;3.80;99.90;;;;;;2073158;28;20041;-66
2021/04/13 05:02:24;;;;;;;11.95;7.82;;;3.90;99.90;;;;;;2071782;28;20072;-66
2021/04/13 05:03:26;;;;;;;11.48;7.57;;;3.90;99.90;;;;;;2075870;28;20029;-66
2021/04/13 05:04:26;;;;;;;16.70;7.53;;;3.90;99.90;;;;;;2083689;28;20021;-66
2021/04/13 05:05:27;;;;;;;12.75;7.68;;;3.90;99.90;;;;;;2089342;28;20052;-66
2021/04/13 05:06:28;;;;;;;15.02;7.22;;;3.90;99.90;;;;;;2080639;28;20544;-66
2021/04/13 05:07:28;;;;;;;11.38;7.18;;;3.90;99.90;;;;;;2080331;28;20456;-66
2021/04/13 05:08:29;;;;;;;13.05;7.32;;;4.00;99.90;;;;;;2081256;28;20021;-66
2021/04/13 05:09:30;;;;;;;9.75;7.20;;;4.00;99.90;;;;;;2075519;28;20129;-66
2021/04/13 05:10:31;;;;;;;15.27;7.82;;;4.00;99.90;;;;;;2072540;28;20026;-66
2021/04/13 05:11:31;;;;;;;12.93;7.45;;;4.00;99.90;;;;;;2072861;28;20026;-66
2021/04/13 05:12:32;;;;;;;12.80;7.70;;;4.00;99.90;;;;;;2083208;28;20124;-66
2021/04/13 05:13:33;;;;;;;11.68;7.63;;;4.10;99.90;;;;;;2064075;28;20036;-66
2021/04/13 05:14:33;;;;;;;12.55;7.60;;;4.10;99.90;;;;;;2074979;28;20095;-66
2021/04/13 05:15:34;;;;;;;13.80;7.50;;;4.10;99.90;;;;;;2079762;28;20422;-65
2021/04/13 05:16:35;;;;;;;15.43;7.32;;;4.10;99.90;;;;;;2081666;28;20030;-65
2021/04/13 05:17:35;;;;;;;12.73;7.82;;;4.10;99.90;;;;;;2080496;28;20109;-66
2021/04/13 05:18:36;;;;;;;14.13;7.72;;;4.10;99.90;;;;;;2080393;28;20021;-66
2021/04/13 05:19:37;;;;;;;12.10;7.32;;;4.10;99.90;;;;;;2080078;28;20014;-66
2021/04/13 05:20:38;;;;;;;11.93;8.10;;;4.00;99.90;;;;;;2081156;28;20033;-65
2021/04/13 05:21:39;;;;;;;13.45;7.30;;;4.00;99.90;;;;;;2077253;28;20402;-66
2021/04/13 05:22:39;;;;;;;12.88;7.88;;;4.00;99.90;;;;;;2072740;28;20021;-66
2021/04/13 05:23:40;;;;;;;13.10;7.95;;;4.00;99.90;;;;;;2077533;28;20739;-66
2021/04/13 05:24:42;;;;;;;13.13;8.45;;;4.00;99.90;;;;;;2073604;28;20061;-66
2021/04/13 05:25:43;;;;;;;14.98;8.70;;;3.90;99.90;;;;;;2075008;28;20010;-66
2021/04/13 05:26:44;;;;;;;12.82;8.05;;;3.90;99.90;;;;;;2085803;28;20031;-66
2021/04/13 05:27:45;;;;;;;13.00;8.15;;;3.90;99.90;;;;;;2076138;28;20025;-66
2021/04/13 05:28:46;;;;;;;15.85;8.45;;;3.80;99.90;;;;;;2078181;28;20025;-66
2021/04/13 05:29:47;;;;;;;15.52;8.48;;;3.80;99.90;;;;;;2080402;28;20013;-66
2021/04/13 05:30:49;;;;;;;13.57;7.40;;;3.80;99.90;;;;;;2076848;28;20091;-66
2021/04/13 05:31:49;;;;;;;;;;;3.80;99.90;;;;;;2081349;28;20100;-66
2021/04/13 05:32:51;;;;;;;14.48;7.72;;;3.80;99.90;;;;;;2079590;28;19905;-66
2021/04/13 05:33:52;;;;;;;14.32;8.43;;;3.80;99.90;;;;;;2075654;28;20460;-66
2021/04/13 05:34:52;;;;;;;13.95;8.52;;;3.70;99.90;;;;;;2078629;28;20083;-66
2021/04/13 05:35:54;;;;;;;14.13;7.93;;;3.70;99.90;;;;;;2079623;28;20025;-66
2021/04/13 05:36:55;;;;;;;12.30;8.77;;;3.70;99.90;;;;;;2072984;28;20069;-66
2021/04/13 05:38:11;;;;;;;18.60;9.20;;;3.60;99.90;;;;;;2077488;28;20742;-66
2021/04/13 05:39:12;;;;;;;16.20;9.45;;;3.60;99.90;;;;;;2077333;28;20318;-66
2021/04/13 05:40:17;;;;;;;11.20;8.13;;;3.70;99.90;;;;;;2074182;28;20033;-66
2021/04/13 05:41:18;;;;;;;12.57;8.57;;;3.70;99.90;;;;;;2078836;28;20053;-66
2021/04/13 05:42:24;;;;;;;14.10;8.30;;;3.70;99.90;;;;;;2086656;28;20029;-66
2021/04/13 05:43:26;;;;;;;12.88;8.85;;;3.80;99.90;;;;;;2075284;28;20053;-66
2021/04/13 05:44:27;;;;;;;;;;;3.80;99.90;;;;;;2080157;28;20079;-66
2021/04/13 05:45:30;;;;;;;15.93;9.45;;;3.80;99.90;;;;;;2080062;28;19906;-66
2021/04/13 05:46:33;;;;;;;12.98;8.77;;;3.80;99.90;;;;;;2072500;28;20018;-66
2021/04/13 05:47:36;;;;;;;14.75;9.38;;;3.80;99.90;;;;;;2075905;28;20018;-66
2021/04/13 05:48:37;;;;;;;12.23;8.77;;;3.80;99.90;;;;;;2079064;28;20080;-67
2021/04/13 05:49:38;;;;;;;13.52;8.55;;;3.80;99.90;;;;;;2080127;28;20171;-67
2021/04/13 05:50:41;;;;;;;12.95;8.90;;;3.80;99.90;;;;;;2080346;28;20095;-66
2021/04/13 05:51:42;;;;;;;16.23;8.93;;;3.80;99.90;;;;;;2079898;28;20068;-66
2021/04/13 05:52:42;;;;;;;12.45;9.05;;;3.80;99.90;;;;;;2079938;28;20447;-66
2021/04/13 05:53:43;;;;;;;14.00;9.25;;;3.80;99.90;;;;;;2080163;28;20700;-66
2021/04/13 05:54:44;;;;;;;16.08;9.15;;;3.80;99.90;;;;;;2079757;28;20025;-66
2021/04/13 05:55:45;;;;;;;12.88;8.80;;;3.80;99.90;;;;;;2084136;28;20032;-66
2021/04/13 05:56:45;;;;;;;13.75;9.30;;;3.80;99.90;;;;;;2073812;28;20030;-66
2021/04/13 05:57:49;;;;;;;11.80;8.15;;;3.80;99.90;;;;;;2078538;28;20459;-66